sensor_id;sensor_type;location;lat;lon;timestamp;temperature;humidity
14735;DHT22;7458;49.002;8.472;2022-08-21T00:00:00;21.40;63.30
14735;DHT22;7458;49.002;8.472;2022-08-21T00:02:27;21.40;63.60
14735;DHT22;7458;49.002;8.472;2022-08-21T00:04:53;21.30;63.80
14735;DHT22;7458;49.002;8.472;2022-08-21T00:07:20;21.30;64.30
14735;DHT22;7458;49.002;8.472;2022-08-21T00:09:47;21.30;64.60
14735;DHT22;7458;49.002;8.472;2022-08-21T00:12:13;21.30;64.80
14735;DHT22;7458;49.002;8.472;2022-08-21T00:14:39;21.20;65.20
14735;DHT22;7458;49.002;8.472;2022-08-21T00:17:05;21.20;65.70
14735;DHT22;7458;49.002;8.472;2022-08-21T00:19:33;21.10;65.90
14735;DHT22;7458;49.002;8.472;2022-08-21T00:21:59;21.10;66.30
14735;DHT22;7458;49.002;8.472;2022-08-21T00:24:24;21.00;66.60
14735;DHT22;7458;49.002;8.472;2022-08-21T00:26:51;20.90;67.10
14735;DHT22;7458;49.002;8.472;2022-08-21T00:29:18;20.90;67.20
14735;DHT22;7458;49.002;8.472;2022-08-21T00:31:44;20.90;68.40
14735;DHT22;7458;49.002;8.472;2022-08-21T00:34:11;20.90;67.90
14735;DHT22;7458;49.002;8.472;2022-08-21T00:36:38;20.90;68.00
14735;DHT22;7458;49.002;8.472;2022-08-21T00:39:06;20.90;68.40
14735;DHT22;7458;49.002;8.472;2022-08-21T00:41:34;20.80;68.60
14735;DHT22;7458;49.002;8.472;2022-08-21T00:44:02;20.80;68.90
14735;DHT22;7458;49.002;8.472;2022-08-21T00:46:29;20.70;69.20
14735;DHT22;7458;49.002;8.472;2022-08-21T00:48:56;20.60;70.40
14735;DHT22;7458;49.002;8.472;2022-08-21T00:51:38;20.40;71.10
14735;DHT22;7458;49.002;8.472;2022-08-21T00:54:10;20.30;71.80
14735;DHT22;7458;49.002;8.472;2022-08-21T00:56:37;20.20;72.10
14735;DHT22;7458;49.002;8.472;2022-08-21T00:59:03;20.20;72.70
14735;DHT22;7458;49.002;8.472;2022-08-21T01:01:31;20.20;72.60
14735;DHT22;7458;49.002;8.472;2022-08-21T01:03:57;20.20;73.30
14735;DHT22;7458;49.002;8.472;2022-08-21T01:06:23;20.10;73.40
14735;DHT22;7458;49.002;8.472;2022-08-21T01:08:49;20.00;73.60
14735;DHT22;7458;49.002;8.472;2022-08-21T01:11:15;20.00;74.20
14735;DHT22;7458;49.002;8.472;2022-08-21T01:13:43;19.90;74.70
14735;DHT22;7458;49.002;8.472;2022-08-21T01:16:14;19.80;75.50
14735;DHT22;7458;49.002;8.472;2022-08-21T01:18:43;19.80;76.00
14735;DHT22;7458;49.002;8.472;2022-08-21T01:21:22;19.70;76.40
14735;DHT22;7458;49.002;8.472;2022-08-21T01:23:52;19.60;77.00
14735;DHT22;7458;49.002;8.472;2022-08-21T01:26:23;19.50;77.10
14735;DHT22;7458;49.002;8.472;2022-08-21T01:29:07;19.40;77.40
14735;DHT22;7458;49.002;8.472;2022-08-21T01:31:53;19.30;77.70
14735;DHT22;7458;49.002;8.472;2022-08-21T01:34:19;19.30;78.10
14735;DHT22;7458;49.002;8.472;2022-08-21T01:36:45;19.30;78.40
14735;DHT22;7458;49.002;8.472;2022-08-21T01:39:12;19.30;78.50
14735;DHT22;7458;49.002;8.472;2022-08-21T01:41:38;19.20;78.50
14735;DHT22;7458;49.002;8.472;2022-08-21T01:44:04;19.10;79.00
14735;DHT22;7458;49.002;8.472;2022-08-21T01:46:30;19.10;79.30
14735;DHT22;7458;49.002;8.472;2022-08-21T01:48:56;19.00;79.50
14735;DHT22;7458;49.002;8.472;2022-08-21T01:51:22;18.90;80.00
14735;DHT22;7458;49.002;8.472;2022-08-21T01:53:48;18.90;80.10
14735;DHT22;7458;49.002;8.472;2022-08-21T01:56:15;18.90;80.40
14735;DHT22;7458;49.002;8.472;2022-08-21T01:58:44;18.90;80.60
14735;DHT22;7458;49.002;8.472;2022-08-21T02:01:12;18.80;81.20
14735;DHT22;7458;49.002;8.472;2022-08-21T02:03:38;18.70;81.70
14735;DHT22;7458;49.002;8.472;2022-08-21T02:06:06;18.60;82.20
14735;DHT22;7458;49.002;8.472;2022-08-21T02:08:32;18.70;82.50
14735;DHT22;7458;49.002;8.472;2022-08-21T02:10:59;18.60;82.60
14735;DHT22;7458;49.002;8.472;2022-08-21T02:13:25;18.60;82.90
14735;DHT22;7458;49.002;8.472;2022-08-21T02:15:51;18.60;83.20
14735;DHT22;7458;49.002;8.472;2022-08-21T02:18:17;18.60;83.50
14735;DHT22;7458;49.002;8.472;2022-08-21T02:20:46;18.60;83.70
14735;DHT22;7458;49.002;8.472;2022-08-21T02:23:14;18.60;83.90
14735;DHT22;7458;49.002;8.472;2022-08-21T02:25:41;18.60;84.30
14735;DHT22;7458;49.002;8.472;2022-08-21T02:28:11;18.50;84.90
14735;DHT22;7458;49.002;8.472;2022-08-21T02:30:42;18.50;85.60
14735;DHT22;7458;49.002;8.472;2022-08-21T02:33:10;18.50;85.90
14735;DHT22;7458;49.002;8.472;2022-08-21T02:35:38;18.40;86.60
14735;DHT22;7458;49.002;8.472;2022-08-21T02:38:10;18.30;86.90
14735;DHT22;7458;49.002;8.472;2022-08-21T02:40:43;18.30;87.30
14735;DHT22;7458;49.002;8.472;2022-08-21T02:43:11;18.30;87.70
14735;DHT22;7458;49.002;8.472;2022-08-21T02:45:39;18.30;88.10
14735;DHT22;7458;49.002;8.472;2022-08-21T02:48:10;18.20;88.20
14735;DHT22;7458;49.002;8.472;2022-08-21T02:50:44;18.20;88.60
14735;DHT22;7458;49.002;8.472;2022-08-21T02:53:14;18.10;88.90
14735;DHT22;7458;49.002;8.472;2022-08-21T02:55:46;18.00;89.30
14735;DHT22;7458;49.002;8.472;2022-08-21T02:58:16;18.00;89.80
14735;DHT22;7458;49.002;8.472;2022-08-21T03:00:46;18.00;90.10
14735;DHT22;7458;49.002;8.472;2022-08-21T03:03:12;18.00;90.20
14735;DHT22;7458;49.002;8.472;2022-08-21T03:05:39;18.00;90.30
14735;DHT22;7458;49.002;8.472;2022-08-21T03:08:06;17.90;90.50
14735;DHT22;7458;49.002;8.472;2022-08-21T03:10:39;17.90;90.70
14735;DHT22;7458;49.002;8.472;2022-08-21T03:13:07;17.80;90.90
14735;DHT22;7458;49.002;8.472;2022-08-21T03:15:33;17.80;91.00
14735;DHT22;7458;49.002;8.472;2022-08-21T03:18:01;17.70;91.10
14735;DHT22;7458;49.002;8.472;2022-08-21T03:20:28;17.80;91.20
14735;DHT22;7458;49.002;8.472;2022-08-21T03:22:55;17.70;91.40
14735;DHT22;7458;49.002;8.472;2022-08-21T03:25:24;17.70;91.70
14735;DHT22;7458;49.002;8.472;2022-08-21T03:27:51;17.60;91.90
14735;DHT22;7458;49.002;8.472;2022-08-21T03:30:19;17.60;92.10
14735;DHT22;7458;49.002;8.472;2022-08-21T03:32:48;17.60;92.20
14735;DHT22;7458;49.002;8.472;2022-08-21T03:35:15;17.60;92.40
14735;DHT22;7458;49.002;8.472;2022-08-21T03:37:41;17.50;92.70
14735;DHT22;7458;49.002;8.472;2022-08-21T03:40:08;17.50;93.00
14735;DHT22;7458;49.002;8.472;2022-08-21T03:42:35;17.50;93.20
14735;DHT22;7458;49.002;8.472;2022-08-21T03:45:01;17.40;93.60
14735;DHT22;7458;49.002;8.472;2022-08-21T03:47:27;17.40;93.80
14735;DHT22;7458;49.002;8.472;2022-08-21T03:49:53;17.40;93.80
14735;DHT22;7458;49.002;8.472;2022-08-21T03:52:19;17.40;94.20
14735;DHT22;7458;49.002;8.472;2022-08-21T03:54:45;17.40;94.30
14735;DHT22;7458;49.002;8.472;2022-08-21T03:57:12;17.40;94.30
14735;DHT22;7458;49.002;8.472;2022-08-21T03:59:38;17.40;94.40
14735;DHT22;7458;49.002;8.472;2022-08-21T04:02:06;17.40;94.60
14735;DHT22;7458;49.002;8.472;2022-08-21T04:04:33;17.30;94.90
14735;DHT22;7458;49.002;8.472;2022-08-21T04:06:59;17.20;95.00
14735;DHT22;7458;49.002;8.472;2022-08-21T04:09:25;17.20;95.30
14735;DHT22;7458;49.002;8.472;2022-08-21T04:11:52;17.10;95.40
14735;DHT22;7458;49.002;8.472;2022-08-21T04:14:18;17.10;95.60
14735;DHT22;7458;49.002;8.472;2022-08-21T04:16:44;17.10;95.80
14735;DHT22;7458;49.002;8.472;2022-08-21T04:19:11;17.10;96.00
14735;DHT22;7458;49.002;8.472;2022-08-21T04:21:39;17.00;96.30
14735;DHT22;7458;49.002;8.472;2022-08-21T04:24:07;17.00;96.50
14735;DHT22;7458;49.002;8.472;2022-08-21T04:26:35;17.00;96.80
14735;DHT22;7458;49.002;8.472;2022-08-21T04:29:02;17.00;96.90
14735;DHT22;7458;49.002;8.472;2022-08-21T04:31:30;16.90;97.10
14735;DHT22;7458;49.002;8.472;2022-08-21T04:33:55;16.90;97.40
14735;DHT22;7458;49.002;8.472;2022-08-21T04:36:22;16.90;97.60
14735;DHT22;7458;49.002;8.472;2022-08-21T04:38:48;16.90;97.70
14735;DHT22;7458;49.002;8.472;2022-08-21T04:41:14;17.00;97.80
14735;DHT22;7458;49.002;8.472;2022-08-21T04:43:40;17.00;98.10
14735;DHT22;7458;49.002;8.472;2022-08-21T04:46:06;16.90;98.30
14735;DHT22;7458;49.002;8.472;2022-08-21T04:48:32;17.00;98.50
14735;DHT22;7458;49.002;8.472;2022-08-21T04:51:13;17.00;98.50
14735;DHT22;7458;49.002;8.472;2022-08-21T04:53:48;16.90;98.70
14735;DHT22;7458;49.002;8.472;2022-08-21T04:56:25;16.90;98.90
14735;DHT22;7458;49.002;8.472;2022-08-21T04:58:58;16.90;98.80
14735;DHT22;7458;49.002;8.472;2022-08-21T05:01:30;16.90;98.80
14735;DHT22;7458;49.002;8.472;2022-08-21T05:04:02;16.90;98.90
14735;DHT22;7458;49.002;8.472;2022-08-21T05:06:33;16.90;99.00
14735;DHT22;7458;49.002;8.472;2022-08-21T05:09:03;16.90;99.10
14735;DHT22;7458;49.002;8.472;2022-08-21T05:11:30;16.90;99.20
14735;DHT22;7458;49.002;8.472;2022-08-21T05:13:57;17.00;99.30
14735;DHT22;7458;49.002;8.472;2022-08-21T05:16:23;17.00;99.30
14735;DHT22;7458;49.002;8.472;2022-08-21T05:18:49;17.10;99.40
14735;DHT22;7458;49.002;8.472;2022-08-21T05:21:15;17.20;99.30
14735;DHT22;7458;49.002;8.472;2022-08-21T05:23:41;17.30;99.20
14735;DHT22;7458;49.002;8.472;2022-08-21T05:26:08;17.30;99.10
14735;DHT22;7458;49.002;8.472;2022-08-21T05:28:34;17.40;99.30
14735;DHT22;7458;49.002;8.472;2022-08-21T05:31:00;17.40;99.40
14735;DHT22;7458;49.002;8.472;2022-08-21T05:33:26;17.30;99.40
14735;DHT22;7458;49.002;8.472;2022-08-21T05:35:54;17.30;99.30
14735;DHT22;7458;49.002;8.472;2022-08-21T05:38:26;17.30;99.30
14735;DHT22;7458;49.002;8.472;2022-08-21T05:40:53;17.30;99.30
14735;DHT22;7458;49.002;8.472;2022-08-21T05:43:20;17.30;99.20
14735;DHT22;7458;49.002;8.472;2022-08-21T05:45:46;17.30;99.30
14735;DHT22;7458;49.002;8.472;2022-08-21T05:48:24;17.40;99.20
14735;DHT22;7458;49.002;8.472;2022-08-21T05:50:51;17.40;99.10
14735;DHT22;7458;49.002;8.472;2022-08-21T05:53:19;17.50;99.00
14735;DHT22;7458;49.002;8.472;2022-08-21T05:55:46;17.50;98.90
14735;DHT22;7458;49.002;8.472;2022-08-21T05:58:18;17.50;98.80
14735;DHT22;7458;49.002;8.472;2022-08-21T06:00:46;17.60;98.80
14735;DHT22;7458;49.002;8.472;2022-08-21T06:03:17;17.70;98.80
14735;DHT22;7458;49.002;8.472;2022-08-21T06:05:46;17.80;98.70
14735;DHT22;7458;49.002;8.472;2022-08-21T06:08:12;17.90;98.80
14735;DHT22;7458;49.002;8.472;2022-08-21T06:10:38;18.00;98.60
14735;DHT22;7458;49.002;8.472;2022-08-21T06:13:04;18.10;98.50
14735;DHT22;7458;49.002;8.472;2022-08-21T06:15:30;18.20;98.20
14735;DHT22;7458;49.002;8.472;2022-08-21T06:17:56;18.30;98.10
14735;DHT22;7458;49.002;8.472;2022-08-21T06:20:22;18.40;98.10
14735;DHT22;7458;49.002;8.472;2022-08-21T06:22:48;18.60;97.90
14735;DHT22;7458;49.002;8.472;2022-08-21T06:25:14;18.70;97.70
14735;DHT22;7458;49.002;8.472;2022-08-21T06:27:40;18.80;97.30
14735;DHT22;7458;49.002;8.472;2022-08-21T06:30:07;19.00;97.10
14735;DHT22;7458;49.002;8.472;2022-08-21T06:32:34;19.80;96.60
14735;DHT22;7458;49.002;8.472;2022-08-21T06:35:00;22.50;91.50
14735;DHT22;7458;49.002;8.472;2022-08-21T06:37:26;24.70;83.20
14735;DHT22;7458;49.002;8.472;2022-08-21T06:39:52;26.60;73.00
14735;DHT22;7458;49.002;8.472;2022-08-21T06:42:18;28.10;62.80
14735;DHT22;7458;49.002;8.472;2022-08-21T06:44:44;28.90;57.20
14735;DHT22;7458;49.002;8.472;2022-08-21T06:47:11;29.60;53.60
14735;DHT22;7458;49.002;8.472;2022-08-21T06:49:37;30.30;50.80
14735;DHT22;7458;49.002;8.472;2022-08-21T06:52:03;30.50;48.40
14735;DHT22;7458;49.002;8.472;2022-08-21T06:54:28;30.80;46.30
14735;DHT22;7458;49.002;8.472;2022-08-21T06:56:56;31.50;44.90
14735;DHT22;7458;49.002;8.472;2022-08-21T06:59:21;32.00;42.90
14735;DHT22;7458;49.002;8.472;2022-08-21T07:01:47;32.50;42.60
14735;DHT22;7458;49.002;8.472;2022-08-21T07:04:13;32.30;42.50
14735;DHT22;7458;49.002;8.472;2022-08-21T07:06:39;31.80;43.10
14735;DHT22;7458;49.002;8.472;2022-08-21T07:09:05;30.50;44.60
14735;DHT22;7458;49.002;8.472;2022-08-21T07:11:31;29.30;45.70
14735;DHT22;7458;49.002;8.472;2022-08-21T07:13:57;29.10;46.40
14735;DHT22;7458;49.002;8.472;2022-08-21T07:16:23;29.10;45.90
14735;DHT22;7458;49.002;8.472;2022-08-21T07:18:49;29.40;46.40
14735;DHT22;7458;49.002;8.472;2022-08-21T07:21:16;29.60;45.30
14735;DHT22;7458;49.002;8.472;2022-08-21T07:23:45;29.30;45.80
14735;DHT22;7458;49.002;8.472;2022-08-21T07:26:15;29.10;47.00
14735;DHT22;7458;49.002;8.472;2022-08-21T07:28:42;28.70;47.60
14735;DHT22;7458;49.002;8.472;2022-08-21T07:31:10;28.40;48.00
14735;DHT22;7458;49.002;8.472;2022-08-21T07:33:40;27.90;49.10
14735;DHT22;7458;49.002;8.472;2022-08-21T07:36:07;28.00;49.40
14735;DHT22;7458;49.002;8.472;2022-08-21T07:38:33;27.70;49.80
14735;DHT22;7458;49.002;8.472;2022-08-21T07:41:01;27.50;50.10
14735;DHT22;7458;49.002;8.472;2022-08-21T07:43:28;27.30;50.90
14735;DHT22;7458;49.002;8.472;2022-08-21T07:45:55;27.30;50.90
14735;DHT22;7458;49.002;8.472;2022-08-21T07:48:21;27.00;51.00
14735;DHT22;7458;49.002;8.472;2022-08-21T07:50:48;27.10;51.30
14735;DHT22;7458;49.002;8.472;2022-08-21T07:53:16;27.00;51.50
14735;DHT22;7458;49.002;8.472;2022-08-21T07:55:42;27.10;51.60
14735;DHT22;7458;49.002;8.472;2022-08-21T07:58:08;26.80;50.90
14735;DHT22;7458;49.002;8.472;2022-08-21T08:00:34;27.00;52.20
14735;DHT22;7458;49.002;8.472;2022-08-21T08:03:00;27.40;51.90
14735;DHT22;7458;49.002;8.472;2022-08-21T08:05:29;27.40;50.70
14735;DHT22;7458;49.002;8.472;2022-08-21T08:07:56;27.40;50.50
14735;DHT22;7458;49.002;8.472;2022-08-21T08:10:23;27.30;51.00
14735;DHT22;7458;49.002;8.472;2022-08-21T08:12:50;27.70;51.70
14735;DHT22;7458;49.002;8.472;2022-08-21T08:15:22;28.00;50.10
14735;DHT22;7458;49.002;8.472;2022-08-21T08:17:49;27.80;49.30
14735;DHT22;7458;49.002;8.472;2022-08-21T08:20:16;28.10;50.30
14735;DHT22;7458;49.002;8.472;2022-08-21T08:22:44;28.60;49.10
14735;DHT22;7458;49.002;8.472;2022-08-21T08:25:12;28.90;47.90
14735;DHT22;7458;49.002;8.472;2022-08-21T08:27:39;29.10;47.40
14735;DHT22;7458;49.002;8.472;2022-08-21T08:30:08;28.90;46.80
14735;DHT22;7458;49.002;8.472;2022-08-21T08:32:36;29.20;47.00
14735;DHT22;7458;49.002;8.472;2022-08-21T08:35:03;29.40;47.00
14735;DHT22;7458;49.002;8.472;2022-08-21T08:37:30;29.30;45.80
14735;DHT22;7458;49.002;8.472;2022-08-21T08:39:56;29.10;45.40
14735;DHT22;7458;49.002;8.472;2022-08-21T08:42:29;29.30;46.00
14735;DHT22;7458;49.002;8.472;2022-08-21T08:45:11;29.40;46.50
14735;DHT22;7458;49.002;8.472;2022-08-21T08:48:01;29.10;45.60
14735;DHT22;7458;49.002;8.472;2022-08-21T08:50:49;29.40;46.10
14735;DHT22;7458;49.002;8.472;2022-08-21T08:53:31;29.80;45.60
14735;DHT22;7458;49.002;8.472;2022-08-21T08:56:01;29.70;44.10
14735;DHT22;7458;49.002;8.472;2022-08-21T08:58:33;29.40;44.60
14735;DHT22;7458;49.002;8.472;2022-08-21T09:01:12;29.30;44.80
14735;DHT22;7458;49.002;8.472;2022-08-21T09:03:41;29.70;45.30
14735;DHT22;7458;49.002;8.472;2022-08-21T09:11:37;29.80;44.40
14735;DHT22;7458;49.002;8.472;2022-08-21T09:14:48;29.90;44.10
14735;DHT22;7458;49.002;8.472;2022-08-21T09:28:41;30.00;43.10
14735;DHT22;7458;49.002;8.472;2022-08-21T09:31:15;29.90;42.90
14735;DHT22;7458;49.002;8.472;2022-08-21T09:33:47;29.90;41.90
14735;DHT22;7458;49.002;8.472;2022-08-21T09:36:25;29.70;42.70
14735;DHT22;7458;49.002;8.472;2022-08-21T09:39:01;29.80;43.20
14735;DHT22;7458;49.002;8.472;2022-08-21T09:41:30;29.70;42.50
14735;DHT22;7458;49.002;8.472;2022-08-21T09:44:02;29.80;42.00
14735;DHT22;7458;49.002;8.472;2022-08-21T09:46:29;30.20;41.90
14735;DHT22;7458;49.002;8.472;2022-08-21T09:48:58;30.30;41.00
14735;DHT22;7458;49.002;8.472;2022-08-21T09:51:29;30.60;41.20
14735;DHT22;7458;49.002;8.472;2022-08-21T09:56:53;30.80;40.50
14735;DHT22;7458;49.002;8.472;2022-08-21T09:59:41;30.90;40.10
14735;DHT22;7458;49.002;8.472;2022-08-21T10:02:31;31.00;40.30
14735;DHT22;7458;49.002;8.472;2022-08-21T10:05:07;30.60;39.90
14735;DHT22;7458;49.002;8.472;2022-08-21T10:07:44;31.00;39.40
14735;DHT22;7458;49.002;8.472;2022-08-21T10:10:21;30.60;38.40
14735;DHT22;7458;49.002;8.472;2022-08-21T10:13:12;30.50;38.50
14735;DHT22;7458;49.002;8.472;2022-08-21T10:24:00;30.80;38.30
14735;DHT22;7458;49.002;8.472;2022-08-21T10:32:41;31.70;37.90
14735;DHT22;7458;49.002;8.472;2022-08-21T10:35:32;31.50;36.40
14735;DHT22;7458;49.002;8.472;2022-08-21T10:49:56;31.70;36.40
14735;DHT22;7458;49.002;8.472;2022-08-21T11:04:16;32.00;35.30
14735;DHT22;7458;49.002;8.472;2022-08-21T11:06:49;32.10;35.10
14735;DHT22;7458;49.002;8.472;2022-08-21T11:09:24;32.30;34.70
14735;DHT22;7458;49.002;8.472;2022-08-21T11:12:44;32.00;33.70
14735;DHT22;7458;49.002;8.472;2022-08-21T11:15:23;32.00;34.60
14735;DHT22;7458;49.002;8.472;2022-08-21T11:24:20;32.40;34.70
14735;DHT22;7458;49.002;8.472;2022-08-21T11:29:54;32.60;34.70
14735;DHT22;7458;49.002;8.472;2022-08-21T11:32:28;32.70;34.00
14735;DHT22;7458;49.002;8.472;2022-08-21T11:37:58;32.80;33.60
14735;DHT22;7458;49.002;8.472;2022-08-21T11:49:16;32.80;33.00
14735;DHT22;7458;49.002;8.472;2022-08-21T11:52:19;32.80;32.80
14735;DHT22;7458;49.002;8.472;2022-08-21T11:54:57;32.90;32.20
14735;DHT22;7458;49.002;8.472;2022-08-21T12:01:05;32.90;32.10
14735;DHT22;7458;49.002;8.472;2022-08-21T12:04:10;32.70;32.00
14735;DHT22;7458;49.002;8.472;2022-08-21T12:06:47;32.60;32.00
14735;DHT22;7458;49.002;8.472;2022-08-21T12:12:05;32.80;32.00
14735;DHT22;7458;49.002;8.472;2022-08-21T12:14:51;32.80;31.90
14735;DHT22;7458;49.002;8.472;2022-08-21T12:17:36;32.70;32.80
14735;DHT22;7458;49.002;8.472;2022-08-21T12:25:45;32.50;38.90
14735;DHT22;7458;49.002;8.472;2022-08-21T12:28:32;32.30;32.60
14735;DHT22;7458;49.002;8.472;2022-08-21T12:30:58;32.10;36.90
14735;DHT22;7458;49.002;8.472;2022-08-21T12:39:04;31.80;37.20
14735;DHT22;7458;49.002;8.472;2022-08-21T12:42:59;32.00;37.10
14735;DHT22;7458;49.002;8.472;2022-08-21T12:47:54;31.60;34.30
14735;DHT22;7458;49.002;8.472;2022-08-21T12:55:57;31.50;33.40
14735;DHT22;7458;49.002;8.472;2022-08-21T12:58:29;31.50;33.50
14735;DHT22;7458;49.002;8.472;2022-08-21T13:03:35;31.50;33.20
14735;DHT22;7458;49.002;8.472;2022-08-21T13:06:04;31.30;33.50
14735;DHT22;7458;49.002;8.472;2022-08-21T13:08:33;31.40;33.20
14735;DHT22;7458;49.002;8.472;2022-08-21T13:11:05;31.40;33.50
14735;DHT22;7458;49.002;8.472;2022-08-21T13:13:33;31.30;33.60
14735;DHT22;7458;49.002;8.472;2022-08-21T13:16:04;31.30;33.50
14735;DHT22;7458;49.002;8.472;2022-08-21T13:18:35;31.30;33.20
14735;DHT22;7458;49.002;8.472;2022-08-21T13:21:16;31.20;32.90
14735;DHT22;7458;49.002;8.472;2022-08-21T13:23:42;31.10;32.80
14735;DHT22;7458;49.002;8.472;2022-08-21T13:26:16;31.10;33.20
14735;DHT22;7458;49.002;8.472;2022-08-21T13:28:45;31.10;33.20
14735;DHT22;7458;49.002;8.472;2022-08-21T13:31:17;31.00;33.20
14735;DHT22;7458;49.002;8.472;2022-08-21T13:33:48;31.00;33.30
14735;DHT22;7458;49.002;8.472;2022-08-21T13:36:24;31.10;33.90
14735;DHT22;7458;49.002;8.472;2022-08-21T13:38:54;31.00;32.90
14735;DHT22;7458;49.002;8.472;2022-08-21T13:41:27;31.00;33.70
14735;DHT22;7458;49.002;8.472;2022-08-21T13:44:16;31.10;33.50
14735;DHT22;7458;49.002;8.472;2022-08-21T13:46:45;31.20;33.30
14735;DHT22;7458;49.002;8.472;2022-08-21T13:49:15;31.20;32.20
14735;DHT22;7458;49.002;8.472;2022-08-21T13:51:44;31.20;33.10
14735;DHT22;7458;49.002;8.472;2022-08-21T13:57:18;31.10;32.20
14735;DHT22;7458;49.002;8.472;2022-08-21T13:59:49;31.10;32.20
14735;DHT22;7458;49.002;8.472;2022-08-21T14:02:20;30.90;32.30
14735;DHT22;7458;49.002;8.472;2022-08-21T14:04:58;30.90;32.50
14735;DHT22;7458;49.002;8.472;2022-08-21T14:07:31;30.90;32.40
14735;DHT22;7458;49.002;8.472;2022-08-21T14:10:07;30.90;32.10
14735;DHT22;7458;49.002;8.472;2022-08-21T14:13:04;30.90;32.50
14735;DHT22;7458;49.002;8.472;2022-08-21T14:15:33;30.90;32.70
14735;DHT22;7458;49.002;8.472;2022-08-21T14:18:18;30.90;32.30
14735;DHT22;7458;49.002;8.472;2022-08-21T14:20:48;31.00;32.30
14735;DHT22;7458;49.002;8.472;2022-08-21T14:23:26;31.00;31.90
14735;DHT22;7458;49.002;8.472;2022-08-21T14:25:52;31.10;32.00
14735;DHT22;7458;49.002;8.472;2022-08-21T14:28:40;31.10;32.10
14735;DHT22;7458;49.002;8.472;2022-08-21T14:31:33;31.00;32.50
14735;DHT22;7458;49.002;8.472;2022-08-21T14:34:00;31.00;32.20
14735;DHT22;7458;49.002;8.472;2022-08-21T14:36:27;30.80;32.40
14735;DHT22;7458;49.002;8.472;2022-08-21T14:38:55;30.80;32.50
14735;DHT22;7458;49.002;8.472;2022-08-21T14:41:23;30.70;32.90
14735;DHT22;7458;49.002;8.472;2022-08-21T14:43:53;30.70;33.10
14735;DHT22;7458;49.002;8.472;2022-08-21T14:46:26;30.80;32.90
14735;DHT22;7458;49.002;8.472;2022-08-21T14:48:55;30.60;33.20
14735;DHT22;7458;49.002;8.472;2022-08-21T14:51:21;30.70;33.10
14735;DHT22;7458;49.002;8.472;2022-08-21T14:53:47;30.40;33.50
14735;DHT22;7458;49.002;8.472;2022-08-21T14:56:14;30.50;33.60
14735;DHT22;7458;49.002;8.472;2022-08-21T14:58:43;30.60;33.50
14735;DHT22;7458;49.002;8.472;2022-08-21T15:01:12;30.70;33.60
14735;DHT22;7458;49.002;8.472;2022-08-21T15:03:39;30.70;33.40
14735;DHT22;7458;49.002;8.472;2022-08-21T15:06:06;30.70;33.40
14735;DHT22;7458;49.002;8.472;2022-08-21T15:08:34;30.70;33.60
14735;DHT22;7458;49.002;8.472;2022-08-21T15:11:01;30.80;33.80
14735;DHT22;7458;49.002;8.472;2022-08-21T15:13:29;30.80;33.40
14735;DHT22;7458;49.002;8.472;2022-08-21T15:15:56;30.80;33.20
14735;DHT22;7458;49.002;8.472;2022-08-21T15:18:26;30.70;33.00
14735;DHT22;7458;49.002;8.472;2022-08-21T15:20:54;30.70;33.20
14735;DHT22;7458;49.002;8.472;2022-08-21T15:23:19;30.80;33.40
14735;DHT22;7458;49.002;8.472;2022-08-21T15:25:47;30.70;33.40
14735;DHT22;7458;49.002;8.472;2022-08-21T15:28:15;30.60;33.50
14735;DHT22;7458;49.002;8.472;2022-08-21T15:30:43;30.60;33.50
14735;DHT22;7458;49.002;8.472;2022-08-21T15:33:10;30.70;33.50
14735;DHT22;7458;49.002;8.472;2022-08-21T15:35:36;30.60;33.00
14735;DHT22;7458;49.002;8.472;2022-08-21T15:38:03;30.50;33.60
14735;DHT22;7458;49.002;8.472;2022-08-21T15:40:29;30.60;33.30
14735;DHT22;7458;49.002;8.472;2022-08-21T15:43:00;30.40;33.70
14735;DHT22;7458;49.002;8.472;2022-08-21T15:45:28;30.30;33.80
14735;DHT22;7458;49.002;8.472;2022-08-21T15:47:55;30.40;33.60
14735;DHT22;7458;49.002;8.472;2022-08-21T15:50:22;30.30;33.90
14735;DHT22;7458;49.002;8.472;2022-08-21T15:52:50;30.30;33.90
14735;DHT22;7458;49.002;8.472;2022-08-21T15:55:16;30.40;34.00
14735;DHT22;7458;49.002;8.472;2022-08-21T15:57:45;30.60;34.20
14735;DHT22;7458;49.002;8.472;2022-08-21T16:00:20;30.60;34.70
14735;DHT22;7458;49.002;8.472;2022-08-21T16:02:51;30.40;34.30
14735;DHT22;7458;49.002;8.472;2022-08-21T16:05:21;30.50;34.50
14735;DHT22;7458;49.002;8.472;2022-08-21T16:07:49;30.40;34.50
14735;DHT22;7458;49.002;8.472;2022-08-21T16:10:18;30.40;34.90
14735;DHT22;7458;49.002;8.472;2022-08-21T16:12:49;30.40;34.90
14735;DHT22;7458;49.002;8.472;2022-08-21T16:15:19;30.30;34.90
14735;DHT22;7458;49.002;8.472;2022-08-21T16:17:47;30.30;35.10
14735;DHT22;7458;49.002;8.472;2022-08-21T16:20:21;30.30;35.10
14735;DHT22;7458;49.002;8.472;2022-08-21T16:22:50;30.30;35.30
14735;DHT22;7458;49.002;8.472;2022-08-21T16:25:17;30.30;34.90
14735;DHT22;7458;49.002;8.472;2022-08-21T16:27:58;30.30;35.00
14735;DHT22;7458;49.002;8.472;2022-08-21T16:30:27;30.40;34.90
14735;DHT22;7458;49.002;8.472;2022-08-21T16:32:54;30.30;34.90
14735;DHT22;7458;49.002;8.472;2022-08-21T16:35:21;30.20;34.70
14735;DHT22;7458;49.002;8.472;2022-08-21T16:37:48;30.20;34.50
14735;DHT22;7458;49.002;8.472;2022-08-21T16:40:17;30.20;34.50
14735;DHT22;7458;49.002;8.472;2022-08-21T16:42:43;30.20;34.50
14735;DHT22;7458;49.002;8.472;2022-08-21T16:45:17;30.20;34.60
14735;DHT22;7458;49.002;8.472;2022-08-21T16:47:45;30.10;34.80
14735;DHT22;7458;49.002;8.472;2022-08-21T16:50:19;30.10;34.50
14735;DHT22;7458;49.002;8.472;2022-08-21T16:52:47;30.10;34.60
14735;DHT22;7458;49.002;8.472;2022-08-21T16:55:14;30.10;34.70
14735;DHT22;7458;49.002;8.472;2022-08-21T16:57:46;29.90;34.50
14735;DHT22;7458;49.002;8.472;2022-08-21T17:00:31;29.80;34.00
14735;DHT22;7458;49.002;8.472;2022-08-21T17:03:06;29.80;33.90
14735;DHT22;7458;49.002;8.472;2022-08-21T17:05:46;29.70;34.60
14735;DHT22;7458;49.002;8.472;2022-08-21T17:08:13;29.60;34.70
14735;DHT22;7458;49.002;8.472;2022-08-21T17:10:43;29.60;34.70
14735;DHT22;7458;49.002;8.472;2022-08-21T17:13:11;29.60;34.60
14735;DHT22;7458;49.002;8.472;2022-08-21T17:15:37;29.50;34.40
14735;DHT22;7458;49.002;8.472;2022-08-21T17:18:07;29.50;34.40
14735;DHT22;7458;49.002;8.472;2022-08-21T17:20:37;29.50;34.60
14735;DHT22;7458;49.002;8.472;2022-08-21T17:23:03;29.40;34.70
14735;DHT22;7458;49.002;8.472;2022-08-21T17:25:29;29.30;34.90
14735;DHT22;7458;49.002;8.472;2022-08-21T17:27:56;29.30;34.90
14735;DHT22;7458;49.002;8.472;2022-08-21T17:30:22;29.30;34.80
14735;DHT22;7458;49.002;8.472;2022-08-21T17:32:50;29.20;35.10
14735;DHT22;7458;49.002;8.472;2022-08-21T17:35:19;29.20;35.20
14735;DHT22;7458;49.002;8.472;2022-08-21T17:37:45;29.00;35.20
14735;DHT22;7458;49.002;8.472;2022-08-21T17:40:14;29.00;35.40
14735;DHT22;7458;49.002;8.472;2022-08-21T17:42:41;29.00;35.80
14735;DHT22;7458;49.002;8.472;2022-08-21T17:45:11;28.90;35.90
14735;DHT22;7458;49.002;8.472;2022-08-21T17:47:41;28.90;36.30
14735;DHT22;7458;49.002;8.472;2022-08-21T17:50:09;28.80;36.60
14735;DHT22;7458;49.002;8.472;2022-08-21T17:52:37;28.80;36.80